createdAt,value
2023-05-25T00:03:55.350Z,0.0
2023-05-25T00:09:01.638Z,0.0
2023-05-25T00:14:28.094Z,0.0
2023-05-25T00:19:34.619Z,0.0
2023-05-25T00:24:20.947Z,0.0
2023-05-25T00:29:27.321Z,0.0
2023-05-25T00:35:01.735Z,0.0
2023-05-25T00:39:40.242Z,0.0
2023-05-25T00:44:46.556Z,0.0
2023-05-25T00:49:53.100Z,0.0
2023-05-25T00:55:33.740Z,0.0
2023-05-25T01:00:06.102Z,0.0
2023-05-25T01:05:12.530Z,0.0
2023-05-25T01:10:18.938Z,0.0
2023-05-25T01:15:25.360Z,0.0
2023-05-25T01:20:30.796Z,0.0
2023-05-25T01:25:28.265Z,0.0
2023-05-25T01:30:44.705Z,0.0
2023-05-25T01:36:11.137Z,0.0
2023-05-25T01:40:57.552Z,0.0
2023-05-25T01:46:03.977Z,0.0
2023-05-25T01:51:10.310Z,0.0
2023-05-25T01:56:16.770Z,0.0
2023-05-25T02:01:23.308Z,0.0
2023-05-25T02:06:29.564Z,0.0
2023-05-25T02:11:35.921Z,0.0
2023-05-25T02:16:42.342Z,0.0
2023-05-25T02:22:32.836Z,0.0
2023-05-25T02:26:55.260Z,0.0
2023-05-25T02:32:21.746Z,0.0
2023-05-25T02:36:58.053Z,0.0
2023-05-25T02:42:04.455Z,0.0
2023-05-25T02:47:45.005Z,0.0
2023-05-25T02:52:26.228Z,0.0
2023-05-25T02:57:23.672Z,0.0
2023-05-25T03:02:40.112Z,0.0
2023-05-25T03:07:50.440Z,0.0
2023-05-25T03:12:52.790Z,0.0
2023-05-25T03:18:03.206Z,0.0
2023-05-25T03:23:05.653Z,0.0
2023-05-25T03:28:11.996Z,0.0
2023-05-25T03:33:22.366Z,0.0
2023-05-25T03:38:24.795Z,0.0
2023-05-25T03:43:35.135Z,5.0
2023-05-25T03:48:37.544Z,5.0
2023-05-25T03:54:36.025Z,10.0
2023-05-25T03:59:10.322Z,10.0
2023-05-25T04:03:56.811Z,15.0
2023-05-25T04:09:27.135Z,25.0
2023-05-25T04:14:33.521Z,35.0
2023-05-25T04:19:15.904Z,40.0
2023-05-25T04:24:22.257Z,45.0
2023-05-25T04:29:32.693Z,50.0
2023-05-25T04:40:09.620Z,65.0
2023-05-25T04:45:15.975Z,80.0
2023-05-25T04:49:54.259Z,90.0
2023-05-25T04:55:00.623Z,90.0
2023-05-25T05:00:07.169Z,90.0
2023-05-25T05:05:13.624Z,100.0
2023-05-25T05:10:40.166Z,100.0
2023-05-25T05:15:26.512Z,125.0
2023-05-25T05:20:22.886Z,135.0
2023-05-25T05:25:39.271Z,125.0
2023-05-25T05:30:45.698Z,135.0
2023-05-25T05:35:52.129Z,140.0
2023-05-25T05:40:48.477Z,145.0
2023-05-25T05:45:54.928Z,150.0
2023-05-25T05:51:11.271Z,155.0
2023-05-25T05:56:21.656Z,180.0
2023-05-25T06:01:24.054Z,170.0
2023-05-25T06:06:30.409Z,185.0
2023-05-25T06:11:36.788Z,170.0
2023-05-25T06:17:07.410Z,140.0
2023-05-25T06:21:39.789Z,130.0
2023-05-25T06:26:46.166Z,140.0
2023-05-25T06:32:02.581Z,135.0
2023-05-25T06:37:09.053Z,150.0
2023-05-25T06:42:35.339Z,175.0
2023-05-25T06:47:21.865Z,245.0
2023-05-25T06:52:28.304Z,200.0
2023-05-25T06:57:58.804Z,345.0
2023-05-25T07:02:41.188Z,235.0
2023-05-25T07:07:47.554Z,320.0
2023-05-25T07:12:53.906Z,350.0
2023-05-25T07:18:00.445Z,365.0
2023-05-25T07:23:06.813Z,320.0
2023-05-25T07:28:13.286Z,270.0
2023-05-25T07:38:26.186Z,230.0
2023-05-25T07:43:32.532Z,345.0
2023-05-25T07:48:38.915Z,470.0
2023-05-25T07:54:23.457Z,355.0
2023-05-25T07:59:11.936Z,330.0
2023-05-25T08:03:58.366Z,140.0
2023-05-25T08:09:24.705Z,145.0
2023-05-25T08:14:11.053Z,205.0
2023-05-25T08:19:17.416Z,220.0
2023-05-25T08:24:23.898Z,235.0
2023-05-25T08:29:20.286Z,165.0
2023-05-25T08:34:36.661Z,125.0
2023-05-25T08:39:43.072Z,185.0
2023-05-25T08:44:49.428Z,255.0
2023-05-25T08:50:17.994Z,310.0
2023-05-25T08:55:24.482Z,440.0
2023-05-25T09:00:34.886Z,950.0
2023-05-25T09:05:17.177Z,935.0
2023-05-25T09:10:23.571Z,505.0
2023-05-25T09:15:33.940Z,385.0
2023-05-25T09:20:36.378Z,330.0
2023-05-25T09:25:46.706Z,745.0
2023-05-25T09:30:39.059Z,930.0
2023-05-25T09:36:19.733Z,405.0
2023-05-25T09:41:01.964Z,1150.0
2023-05-25T09:45:58.397Z,535.0
2023-05-25T09:51:18.771Z,425.0
2023-05-25T09:56:21.164Z,295.0
2023-05-25T10:01:27.629Z,195.0
2023-05-25T10:06:37.926Z,250.0
2023-05-25T10:11:40.419Z,405.0
2023-05-25T10:16:46.793Z,1700.0
2023-05-25T10:22:00.514Z,905.0
2023-05-25T10:28:09.036Z,725.0
2023-05-25T10:33:32.562Z,450.0
2023-05-25T10:39:19.060Z,345.0
2023-05-25T10:44:02.229Z,320.0
2023-05-25T10:48:57.766Z,725.0
2023-05-25T10:54:46.225Z,510.0
2023-05-25T11:00:14.824Z,630.0
2023-05-25T11:04:51.076Z,630.0
2023-05-25T11:10:07.487Z,760.0
2023-05-25T11:14:49.824Z,570.0
2023-05-25T11:19:56.424Z,500.0
2023-05-25T11:25:02.616Z,400.0
2023-05-25T11:29:58.987Z,440.0
2023-05-25T11:35:35.473Z,885.0
2023-05-25T11:40:37.589Z,1145.0
2023-05-25T11:45:28.238Z,455.0
2023-05-25T11:51:18.744Z,565.0
2023-05-25T11:55:41.038Z,1970.0
2023-05-25T12:01:26.470Z,645.0
2023-05-25T12:05:52.784Z,435.0
2023-05-25T12:10:50.373Z,485.0
2023-05-25T12:16:19.607Z,615.0
2023-05-25T12:21:37.353Z,940.0
2023-05-25T12:26:19.484Z,1915.0
2023-05-25T12:31:15.860Z,670.0
2023-05-25T12:36:22.194Z,445.0
2023-05-25T12:41:28.636Z,1645.0
2023-05-25T12:46:35.052Z,1600.0
2023-05-25T12:52:15.419Z,515.0
2023-05-25T12:57:17.891Z,640.0
2023-05-25T13:02:24.233Z,560.0
2023-05-25T13:07:44.813Z,665.0
2023-05-25T13:12:52.191Z,1625.0
2023-05-25T13:18:32.592Z,1510.0
2023-05-25T13:24:18.050Z,535.0
2023-05-25T13:28:51.364Z,470.0
2023-05-25T13:33:57.842Z,1340.0
2023-05-25T13:39:08.227Z,1300.0
2023-05-25T13:44:34.691Z,1120.0
2023-05-25T13:49:06.958Z,1105.0
2023-05-25T13:54:23.362Z,680.0
2023-05-25T13:59:29.736Z,495.0
2023-05-25T14:04:36.260Z,525.0
2023-05-25T14:09:32.624Z,385.0
2023-05-25T14:14:49.032Z,420.0
2023-05-25T14:19:55.463Z,385.0
2023-05-25T14:24:51.808Z,360.0
2023-05-25T14:30:08.173Z,345.0
2023-05-25T14:35:14.576Z,375.0
2023-05-25T14:40:20.926Z,340.0
2023-05-25T14:45:27.309Z,325.0
2023-05-25T14:50:33.719Z,330.0
2023-05-25T14:55:40.098Z,310.0
2023-05-25T15:00:46.478Z,310.0
2023-05-25T15:06:17.023Z,265.0
2023-05-25T15:10:59.374Z,265.0
2023-05-25T15:15:55.757Z,260.0
2023-05-25T15:21:12.114Z,250.0
2023-05-25T15:26:18.515Z,275.0
2023-05-25T15:31:49.017Z,250.0
2023-05-25T15:36:45.370Z,245.0
2023-05-25T15:41:37.860Z,230.0
2023-05-25T15:46:44.243Z,230.0
2023-05-25T15:51:50.585Z,225.0
2023-05-25T15:56:57.024Z,210.0
2023-05-25T16:02:03.406Z,210.0
2023-05-25T16:07:09.846Z,205.0
2023-05-25T16:12:21.104Z,200.0
2023-05-25T16:17:22.605Z,190.0
2023-05-25T16:22:29.004Z,190.0
2023-05-25T16:27:35.458Z,185.0
2023-05-25T16:32:41.777Z,180.0
2023-05-25T16:37:48.129Z,175.0
2023-05-25T16:42:54.638Z,170.0
2023-05-25T16:48:01.045Z,170.0
2023-05-25T16:52:57.353Z,170.0
2023-05-25T16:58:13.792Z,165.0
2023-05-25T17:03:10.387Z,155.0
2023-05-25T17:08:26.738Z,155.0
2023-05-25T17:13:53.192Z,150.0
2023-05-25T17:18:39.541Z,145.0
2023-05-25T17:23:45.884Z,135.0
2023-05-25T17:28:52.372Z,130.0
2023-05-25T17:34:18.844Z,120.0
2023-05-25T17:39:05.161Z,135.0
2023-05-25T17:44:46.941Z,120.0
2023-05-25T17:49:09.234Z,110.0
2023-05-25T17:54:26.006Z,100.0
2023-05-25T18:02:42.502Z,95.0
2023-05-25T18:05:15.475Z,95.0
2023-05-25T18:11:31.722Z,90.0
2023-05-25T18:15:28.957Z,85.0
2023-05-25T18:20:35.464Z,80.0
2023-05-25T18:26:39.552Z,70.0
2023-05-25T18:31:27.153Z,65.0
2023-05-25T18:35:58.576Z,60.0
2023-05-25T18:41:06.105Z,55.0
2023-05-25T18:46:12.511Z,45.0
2023-05-25T18:51:18.887Z,40.0
2023-05-25T18:56:25.322Z,35.0
2023-05-25T19:01:31.750Z,30.0
2023-05-25T19:06:42.056Z,25.0
2023-05-25T19:11:48.533Z,20.0
2023-05-25T19:16:51.149Z,15.0
2023-05-25T19:22:21.438Z,10.0
2023-05-25T19:27:03.782Z,10.0
2023-05-25T19:32:34.292Z,5.0
2023-05-25T19:37:36.629Z,5.0
2023-05-25T19:42:22.965Z,0.0
2023-05-25T19:47:32.540Z,0.0
2023-05-25T19:52:38.920Z,0.0
2023-05-25T19:57:45.285Z,0.0
2023-05-25T20:02:51.951Z,0.0
2023-05-25T20:08:42.185Z,0.0
2023-05-25T20:13:04.535Z,0.0
2023-05-25T20:18:10.958Z,0.0
2023-05-25T20:23:17.435Z,0.0
2023-05-25T20:28:23.904Z,0.0
2023-05-25T20:33:30.215Z,0.0
2023-05-25T20:39:00.666Z,0.0
2023-05-25T20:43:43.075Z,0.0
2023-05-25T20:48:49.557Z,0.0
2023-05-25T20:53:55.964Z,0.0
2023-05-25T20:59:06.388Z,0.0
2023-05-25T21:04:08.810Z,0.0
2023-05-25T21:09:15.165Z,0.0
2023-05-25T21:14:21.573Z,0.0
2023-05-25T21:19:27.938Z,0.0
2023-05-25T21:24:34.342Z,0.0
2023-05-25T21:30:08.807Z,0.0
2023-05-25T21:34:47.097Z,0.0
2023-05-25T21:39:53.513Z,0.0
2023-05-25T21:44:59.897Z,0.0
2023-05-25T21:50:06.313Z,0.0
2023-05-25T21:55:12.722Z,0.0
2023-05-25T22:00:19.076Z,0.0
2023-05-25T22:05:25.488Z,0.0
2023-05-25T22:10:31.844Z,0.0
2023-05-25T22:15:42.369Z,0.0
2023-05-25T22:21:04.793Z,0.0
2023-05-25T22:47:12.554Z,0.0
2023-05-25T22:51:13.310Z,0.0
2023-05-25T23:08:05.752Z,0.0
2023-05-25T23:13:02.146Z,0.0
2023-05-25T23:17:45.518Z,0.0
2023-05-25T23:22:51.861Z,0.0
2023-05-25T23:28:22.383Z,0.0
2023-05-25T23:33:28.684Z,0.0
2023-05-25T23:38:11.055Z,0.0
2023-05-25T23:43:17.433Z,0.0
2023-05-25T23:48:23.853Z,0.0
2023-05-25T23:53:30.347Z,0.0
2023-05-25T23:58:36.761Z,0.0
